createdAt,value
2023-04-23T00:24:58.643Z,22.80
2023-04-23T00:28:30.504Z,18.20
2023-04-23T00:31:59.981Z,15.30
2023-04-23T00:47:12.365Z,12.80
2023-04-23T00:50:41.850Z,12.20
2023-04-23T00:54:23.106Z,12.20
2023-04-23T00:58:04.064Z,12.30
2023-04-23T01:56:07.257Z,17.00
2023-04-23T01:59:35.390Z,14.80
2023-04-23T02:03:16.685Z,17.00
2023-04-23T02:06:58.181Z,14.70
2023-04-23T02:25:45.435Z,13.60
2023-04-23T02:29:17.198Z,13.50
2023-04-23T02:32:46.481Z,12.70
2023-04-23T02:36:16.143Z,14.20
2023-04-23T02:39:45.135Z,13.90
2023-04-23T02:43:13.145Z,15.60
2023-04-23T03:12:22.822Z,18.60
2023-04-23T03:16:04.504Z,18.10
2023-04-23T03:19:18.545Z,18.30
2023-04-23T03:22:51.015Z,17.70
2023-04-23T03:41:24.466Z,16.70
2023-04-23T03:45:11.643Z,17.70
2023-04-23T03:48:09.828Z,16.50
2023-04-23T03:51:53.272Z,15.90
2023-04-23T03:55:22.481Z,16.60
2023-04-23T03:58:57.621Z,17.70
2023-04-23T04:02:15.846Z,16.60
2023-04-23T04:09:33.001Z,16.50
2023-04-23T04:31:16.403Z,15.30
2023-04-23T04:34:46.718Z,15.90
2023-04-23T04:38:16.265Z,15.40
2023-04-23T04:41:45.381Z,15.20
2023-04-23T04:45:20.834Z,15.30
2023-04-23T04:48:54.112Z,15.50
2023-04-23T04:52:34.674Z,15.00
2023-04-23T05:10:59.942Z,14.00
2023-04-23T05:14:35.643Z,15.00
2023-04-23T05:18:14.620Z,13.30
2023-04-23T05:21:53.694Z,12.80
2023-04-23T05:25:25.978Z,13.10
2023-04-23T05:54:11.268Z,13.40
2023-04-23T05:57:47.298Z,13.30
2023-04-23T06:01:28.344Z,10.90
2023-04-23T06:05:16.196Z,10.60
2023-04-23T06:27:46.665Z,10.40
2023-04-23T06:31:18.829Z,10.50
2023-04-23T06:38:48.452Z,10.40
2023-04-23T06:42:25.669Z,10.20
2023-04-23T06:45:59.379Z,9.40
2023-04-23T06:49:28.111Z,9.40
2023-04-23T07:17:33.444Z,7.70
2023-04-23T07:20:22.902Z,7.70
2023-04-23T07:23:09.949Z,8.90
2023-04-23T07:25:38.819Z,7.90
2023-04-23T07:28:35.316Z,8.60
2023-04-23T07:31:18.879Z,7.80
2023-04-23T07:33:59.885Z,7.70
2023-04-23T07:36:37.485Z,7.40
2023-04-23T07:39:15.019Z,9.00
2023-04-23T07:41:48.270Z,7.40
2023-04-23T07:44:22.818Z,8.00
2023-04-23T07:46:51.845Z,7.80
2023-04-23T07:49:25.749Z,7.70
2023-04-23T07:52:01.686Z,7.10
2023-04-23T07:54:30.117Z,6.90
2023-04-23T07:56:59.090Z,7.20
2023-04-23T07:59:27.705Z,7.20
2023-04-23T08:01:56.270Z,7.40
2023-04-23T08:04:25.185Z,6.80
2023-04-23T08:06:54.660Z,7.10
2023-04-23T08:09:23.927Z,6.90
2023-04-23T08:11:53.102Z,6.90
2023-04-23T08:14:21.672Z,7.30
2023-04-23T08:16:50.067Z,7.40
2023-04-23T08:19:18.605Z,6.90
2023-04-23T08:21:47.775Z,6.40
2023-04-23T08:24:16.911Z,7.20
2023-04-23T08:26:47.034Z,6.20
2023-04-23T08:29:15.444Z,6.30
2023-04-23T08:31:43.932Z,5.70
2023-04-23T08:34:13.177Z,5.10
2023-04-23T08:36:41.989Z,5.40
2023-04-23T08:39:10.755Z,6.10
2023-04-23T08:41:45.434Z,4.80
2023-04-23T08:44:17.524Z,5.70
2023-04-23T08:46:46.802Z,5.40
2023-04-23T08:49:17.008Z,5.20
2023-04-23T08:52:11.210Z,5.70
2023-04-23T08:54:41.575Z,5.20
2023-04-23T08:57:11.221Z,5.00
2023-04-23T08:59:43.759Z,4.80
2023-04-23T09:02:12.606Z,4.70
2023-04-23T09:04:41.782Z,4.50
2023-04-23T09:07:13.900Z,5.00
2023-04-23T09:09:42.650Z,4.50
2023-04-23T09:12:11.597Z,4.70
2023-04-23T09:14:40.471Z,4.70
2023-04-23T09:17:09.305Z,5.10
2023-04-23T09:19:40.163Z,4.30
2023-04-23T09:22:10.397Z,5.00
2023-04-23T09:24:42.652Z,4.80
2023-04-23T09:27:11.910Z,4.40
2023-04-23T09:29:40.640Z,5.00
2023-04-23T09:32:10.071Z,4.80
2023-04-23T09:34:39.101Z,4.60
2023-04-23T09:37:12.088Z,4.40
2023-04-23T09:39:41.320Z,4.70
2023-04-23T09:42:12.802Z,4.80
2023-04-23T09:44:41.807Z,4.80
2023-04-23T09:47:10.576Z,4.70
2023-04-23T09:49:47.172Z,4.60
2023-04-23T09:52:18.686Z,5.40
2023-04-23T09:54:47.874Z,4.70
2023-04-23T09:57:17.080Z,4.80
2023-04-23T09:59:51.332Z,5.10
2023-04-23T10:02:27.958Z,5.80
2023-04-23T10:05:10.055Z,4.70
2023-04-23T10:07:46.857Z,4.70
2023-04-23T10:10:16.189Z,4.50
2023-04-23T10:12:54.420Z,4.50
2023-04-23T10:15:26.362Z,4.80
2023-04-23T10:17:56.047Z,4.40
2023-04-23T10:20:24.898Z,5.20
2023-04-23T10:22:55.005Z,4.40
2023-04-23T10:25:24.955Z,4.40
2023-04-23T10:27:56.544Z,4.70
2023-04-23T10:30:25.857Z,4.70
2023-04-23T10:32:54.517Z,5.30
2023-04-23T10:35:23.155Z,5.30
2023-04-23T10:37:52.360Z,4.30
2023-04-23T10:40:24.969Z,5.10
2023-04-23T10:42:54.241Z,4.60
2023-04-23T10:45:25.642Z,4.70
2023-04-23T10:47:57.605Z,4.90
2023-04-23T10:50:31.483Z,4.50
2023-04-23T10:53:25.849Z,4.30
2023-04-23T10:56:08.041Z,4.40
2023-04-23T10:58:50.831Z,3.90
2023-04-23T11:01:21.213Z,3.90
2023-04-23T11:03:52.377Z,4.00
2023-04-23T11:06:43.759Z,4.20
2023-04-23T11:09:31.010Z,4.20
2023-04-23T11:12:01.908Z,4.90
2023-04-23T11:14:37.585Z,3.90
2023-04-23T11:17:08.689Z,3.40
2023-04-23T11:19:38.290Z,4.90
2023-04-23T11:22:12.950Z,4.50
2023-04-23T11:24:43.592Z,4.30
2023-04-23T11:27:20.032Z,3.50
2023-04-23T11:29:49.305Z,4.00
2023-04-23T11:32:17.977Z,4.30
2023-04-23T11:34:47.776Z,4.00
2023-04-23T11:37:17.390Z,4.00
2023-04-23T11:39:48.098Z,3.80
2023-04-23T11:42:20.528Z,3.70
2023-04-23T11:44:49.016Z,3.90
2023-04-23T11:47:19.183Z,4.00
2023-04-23T11:49:48.519Z,3.60
2023-04-23T11:52:42.902Z,4.00
2023-04-23T11:55:13.689Z,3.40
2023-04-23T11:57:49.886Z,3.20
2023-04-23T12:00:23.494Z,3.30
2023-04-23T12:02:56.507Z,3.90
2023-04-23T12:06:08.515Z,3.80
2023-04-23T12:08:47.384Z,3.50
2023-04-23T12:11:16.483Z,3.50
2023-04-23T12:13:45.618Z,3.80
2023-04-23T12:16:14.258Z,3.00
2023-04-23T12:18:44.616Z,3.10
2023-04-23T12:21:14.033Z,2.80
2023-04-23T12:23:45.471Z,3.00
2023-04-23T12:26:19.997Z,3.10
2023-04-23T12:28:54.214Z,3.20
2023-04-23T12:31:28.184Z,3.10
2023-04-23T12:34:17.827Z,2.50
2023-04-23T12:36:56.151Z,2.40
2023-04-23T12:39:48.103Z,2.60
2023-04-23T12:42:38.296Z,2.80
2023-04-23T12:45:31.912Z,4.30
2023-04-23T12:48:18.626Z,4.50
2023-04-23T12:51:05.109Z,3.30
2023-04-23T12:54:05.776Z,4.30
2023-04-23T12:57:13.868Z,3.50
2023-04-23T13:00:23.894Z,3.40
2023-04-23T13:03:10.186Z,2.90
2023-04-23T13:06:12.255Z,2.70
2023-04-23T13:08:55.682Z,3.40
2023-04-23T13:11:50.884Z,4.00
2023-04-23T13:14:59.701Z,3.20
2023-04-23T13:18:08.587Z,3.80
2023-04-23T13:20:53.232Z,3.50
2023-04-23T13:24:02.064Z,3.50
2023-04-23T13:26:56.279Z,3.30
2023-04-23T13:30:05.286Z,3.10
2023-04-23T13:33:13.236Z,2.80
2023-04-23T13:36:11.157Z,3.00
2023-04-23T13:39:22.133Z,2.90
2023-04-23T13:42:31.069Z,2.70
2023-04-23T13:45:23.819Z,3.10
2023-04-23T13:48:25.594Z,3.10
2023-04-23T13:51:21.823Z,3.30
2023-04-23T13:54:31.937Z,3.50
2023-04-23T13:57:40.756Z,3.70
2023-04-23T14:00:49.608Z,4.30
2023-04-23T14:03:48.682Z,3.50
2023-04-23T14:06:58.531Z,3.90
2023-04-23T14:10:10.027Z,3.60
2023-04-23T14:13:20.857Z,4.00
2023-04-23T14:16:30.339Z,3.70
2023-04-23T14:19:44.701Z,3.70
2023-04-23T14:25:49.485Z,4.10
2023-04-23T14:29:05.588Z,4.10
2023-04-23T14:32:14.930Z,4.10
2023-04-23T14:35:39.505Z,3.70
2023-04-23T14:38:54.450Z,4.40
2023-04-23T14:42:03.672Z,3.90
2023-04-23T14:45:17.061Z,3.90
2023-04-23T14:52:30.688Z,5.10
2023-04-23T14:55:59.434Z,5.50
2023-04-23T14:59:29.280Z,5.20
2023-04-23T15:02:59.496Z,6.00
2023-04-23T15:06:33.747Z,5.90
2023-04-23T15:13:30.353Z,5.40
2023-04-23T15:31:38.216Z,5.90
2023-04-23T15:35:07.968Z,6.50
2023-04-23T15:38:37.058Z,9.00
2023-04-23T15:42:12.070Z,7.10
2023-04-23T15:45:43.370Z,6.30
2023-04-23T15:49:21.334Z,7.00
2023-04-23T15:56:27.964Z,8.90
2023-04-23T16:26:01.223Z,6.40
2023-04-23T16:29:32.765Z,8.40
2023-04-23T16:51:45.593Z,5.70
2023-04-23T17:28:32.189Z,10.10
2023-04-23T17:32:05.981Z,10.90
2023-04-23T17:35:43.098Z,31.60
2023-04-23T17:39:21.752Z,18.10
2023-04-23T17:54:17.559Z,30.60
2023-04-23T18:01:54.874Z,34.60
2023-04-23T18:05:29.545Z,27.20
2023-04-23T18:08:44.443Z,25.10
2023-04-23T18:30:39.089Z,52.10
2023-04-23T18:34:29.526Z,51.10
2023-04-23T18:37:58.089Z,50.60
2023-04-23T18:41:31.661Z,32.20
2023-04-23T18:45:16.190Z,42.10
2023-04-23T18:48:46.887Z,34.80
2023-04-23T18:52:19.648Z,42.60
2023-04-23T19:19:01.996Z,36.70
2023-04-23T19:22:49.886Z,30.80
2023-04-23T19:30:36.943Z,21.60
2023-04-23T19:38:16.423Z,23.70
2023-04-23T20:08:00.676Z,33.00
2023-04-23T20:11:34.587Z,34.00
2023-04-23T20:15:16.157Z,34.00
2023-04-23T20:37:57.690Z,37.40
2023-04-23T20:57:37.633Z,31.10
2023-04-23T21:01:16.431Z,31.70
2023-04-23T21:04:49.627Z,30.10
2023-04-23T21:30:17.238Z,30.10
2023-04-23T21:33:46.978Z,31.10
2023-04-23T21:37:17.618Z,27.20
2023-04-23T21:40:50.223Z,28.40
2023-04-23T21:44:28.923Z,27.80
2023-04-23T21:59:10.522Z,26.30
2023-04-23T22:02:44.650Z,29.30
2023-04-23T22:06:36.711Z,30.70
2023-04-23T22:10:34.546Z,28.00
2023-04-23T22:14:07.944Z,28.10
2023-04-23T22:17:50.802Z,26.10
2023-04-23T22:37:12.413Z,25.90
2023-04-23T22:40:44.777Z,28.20
2023-04-23T22:44:21.770Z,29.10
2023-04-23T23:10:01.216Z,25.10
2023-04-23T23:13:34.068Z,27.70
2023-04-23T23:21:09.260Z,29.10
2023-04-23T23:24:41.686Z,26.90
2023-04-23T23:32:23.619Z,29.20
